Weather observations for the past three days for
Melville Hall Airport
Metric (Imperial)
Date Time (ast) Wind (kph) Vis. (km) Weather Sky Cond. Temperature (ºC) Relative Humidity Wind Chill (°C) Heat Index (°C) Pressure Precipitation (cm)
Air Dwpt 6 hour altimeter (cm) sea level (mb) 1 hr 3 hr 6 hr
Max. Min.
04 20:00 W 6 0.00 Partly Cloudy SCT017 26 25 94% 28 0 0.0
04 19:00 Vrbl 4 0.00 Partly Cloudy SCT017 26 25 94% 28 0 0.0
04 18:00 SE 7 0.00 Partly Cloudy SCT017 29 26 84% 36 0 0.0
04 17:00 SE 9 0.00 Partly Cloudy SCT021 29 26 84% 36 0 0.0
04 16:00 SE 11 0.00 A Few Clouds FEW021 30 26 79% 37 0 0.0
04 15:00 E 15 0.00 A Few Clouds FEW021 30 26 79% 37 0 0.0
04 14:00 E 15 0.00 A Few Clouds FEW020 30 26 79% 37 0 0.0
04 13:00 SE 13 0.00 Mostly Cloudy BKN022 31 27 79% 41 0 0.0
04 12:00 SE 15 0.00 Partly Cloudy SCT020 31 27 79% 41 0 0.0
04 11:00 SE 15 0.00 A Few Clouds FEW020 31 27 79% 41 0 0.0
04 10:00 E 13 0.00 Partly Cloudy SCT018 30 27 84% 39 0 0.0
04 09:00 E 15 0.00 Mostly Cloudy BKN018 30 27 84% 39 0 0.0
04 08:00 E 11 0.00 Light Showers Rain BKN017 29 25 79% 35 0 0.0
04 07:00 SE 7 0.00 Partly Cloudy SCT016 28 27 94% 35 0 0.0
04 06:00 N 4 0.00 Partly Cloudy SCT016 25 25 100% 25 0 0.0
03 21:00 NW 4 0.00 Partly Cloudy SCT021 25 25 100% 25 0 0.0
03 19:00 E 6 0.00 Partly Cloudy SCT021 27 25 89% 31 0 0.0
03 18:00 E 6 0.00 A Few Clouds FEW021 28 25 84% 33 0 0.0
03 17:00 E 11 0.00 A Few Clouds FEW021 29 25 79% 35 0 0.0
03 16:00 E 13 0.00 A Few Clouds FEW021 29 25 79% 35 0 0.0
03 15:00 E 13 0.00 A Few Clouds FEW021 30 25 75% 36 0 0.0
03 14:00 E 15 0.00 A Few Clouds FEW021 30 25 75% 36 0 0.0
03 13:00 SE 13 0.00 A Few Clouds FEW021 31 26 75% 39 0 0.0
03 12:00 SE 13 0.00 A Few Clouds FEW021 31 25 70% 38 0 0.0
03 11:00 E 15 0.00 A Few Clouds FEW021 30 25 75% 36 0 0.0
03 10:00 SE 15 0.00 A Few Clouds FEW019 31 25 70% 38 0 0.0
03 09:00 SE 15 0.00 Partly Cloudy SCT018 30 25 75% 36 0 0.0
03 07:00 W 7 0.00 Partly Cloudy SCT017 25 25 100% 25 0 0.0
03 06:00 W 7 0.00 Showers in Vicinity SCT015 24 23 94% 23 0 0.0
02 20:00 NW 6 0.00 Mostly Cloudy BKN017 25 24 94% 26 0 0.0
02 19:00 W 6 0.00 Mostly Cloudy BKN017 25 24 94% 26 0 0.0
02 18:00 S 4 0.00 Mostly Cloudy BKN017 28 24 79% 32 0 0.0
02 17:00 SE 7 0.00 Partly Cloudy FEW024 SCT042 29 24 74% 34 0 0.0
02 16:00 S 6 0.00 Mostly Cloudy FEW020 BKN042 30 25 75% 36 0 0.0
02 15:00 SE 11 0.00 Mostly Cloudy FEW021 BKN046 28 25 84% 33 0 0.0
02 14:00 E 15 0.00 Mostly Cloudy BKN016 30 26 79% 37 0 0.0
02 13:00 E 13 0.00 Partly Cloudy SCT020 30 26 79% 37 0 0.0
02 12:00 E 11 0.00 A Few Clouds FEW022 30 25 75% 36 0 0.0
02 11:00 E 11 0.00 Partly Cloudy SCT022 30 25 75% 36 0 0.0
02 10:00 SE 11 0.00 Partly Cloudy SCT022 30 25 75% 36 0 0.0
02 09:00 SE 11 0.00 Partly Cloudy SCT022 30 26 79% 37 0 0.0
02 08:00 SE 13 0.00 Partly Cloudy SCT020 29 26 84% 36 0 0.0
02 07:00 S 6 0.00 Mostly Cloudy BKN016 26 26 100% 28 0 0.0
02 06:00 NW 4 0.00 Mostly Cloudy BKN016 24 24 100% 23 0 0.0
Date Time (ast) Wind (kph) Vis. (km) Weather Sky Cond. Air Dwpt Max. Min. Relative Humidity Wind Chill (°C) Heat Index (°C) altimeter (cm) sea level (mb) 1 hr 3 hr 6 hr
6 hour
Temperature (ºC) Pressure Precipitation (cm)